createdAt,value
2018-01-10T00:02:09.462Z,38.30
2018-01-10T00:04:36.948Z,47.10
2018-01-10T00:07:05.172Z,42.07
2018-01-10T00:09:32.622Z,42.47
2018-01-10T00:12:00.849Z,42.67
2018-01-10T00:14:29.091Z,43.40
2018-01-10T00:16:56.539Z,46.70
2018-01-10T00:19:24.002Z,40.50
2018-01-10T00:21:51.456Z,41.70
2018-01-10T00:24:19.694Z,42.67
2018-01-10T00:26:47.917Z,44.67
2018-01-10T00:29:15.385Z,39.80
2018-01-10T00:31:42.845Z,36.77
2018-01-10T00:34:10.309Z,40.73
2018-01-10T00:36:37.761Z,42.97
2018-01-10T00:39:05.222Z,42.90
2018-01-10T00:41:32.699Z,41.67
2018-01-10T00:44:00.158Z,39.57
2018-01-10T00:46:28.385Z,41.67
2018-01-10T00:48:56.646Z,43.00
2018-01-10T00:51:24.118Z,36.90
2018-01-10T00:53:51.566Z,41.63
2018-01-10T00:56:19.025Z,41.10
2018-01-10T00:58:46.478Z,35.40
2018-01-10T01:01:13.935Z,39.17
2018-01-10T01:03:41.390Z,40.57
2018-01-10T01:06:08.842Z,39.00
2018-01-10T01:08:36.295Z,37.67
2018-01-10T01:11:03.774Z,39.43
2018-01-10T01:13:31.231Z,40.90
2018-01-10T01:15:58.700Z,40.07
2018-01-10T01:18:26.186Z,34.03
2018-01-10T01:20:55.147Z,33.40
2018-01-10T01:23:22.590Z,43.60
2018-01-10T01:25:50.058Z,38.87
2018-01-10T01:28:17.510Z,41.00
2018-01-10T01:30:44.985Z,41.60
2018-01-10T01:33:13.209Z,40.93
2018-01-10T01:35:41.417Z,40.03
2018-01-10T01:38:08.900Z,49.47
2018-01-10T01:40:36.351Z,38.30
2018-01-10T01:43:03.814Z,40.23
2018-01-10T01:45:31.272Z,38.07
2018-01-10T01:47:58.749Z,38.23
2018-01-10T01:50:26.966Z,40.80
2018-01-10T01:52:54.455Z,42.47
2018-01-10T01:55:21.915Z,35.63
2018-01-10T01:57:49.360Z,42.13
2018-01-10T02:00:16.838Z,43.53
2018-01-10T02:02:45.065Z,43.03
2018-01-10T02:05:13.289Z,42.87
2018-01-10T02:07:40.745Z,44.40
2018-01-10T02:10:08.202Z,38.77
2018-01-10T02:12:35.673Z,42.87
2018-01-10T02:15:03.134Z,43.27
2018-01-10T02:17:31.364Z,42.50
2018-01-10T02:19:58.828Z,41.87
2018-01-10T02:22:26.285Z,38.63
2018-01-10T02:24:53.721Z,46.37
2018-01-10T02:27:21.197Z,41.93
2018-01-10T02:29:48.653Z,44.63
2018-01-10T02:32:16.877Z,41.73
2018-01-10T02:34:45.110Z,46.33
2018-01-10T02:37:12.557Z,38.57
2018-01-10T02:39:40.034Z,43.40
2018-01-10T02:42:07.477Z,42.37
2018-01-10T02:44:34.954Z,44.23
2018-01-10T02:47:02.389Z,41.27
2018-01-10T02:49:29.865Z,43.70
2018-01-10T02:51:57.330Z,40.00
2018-01-10T02:54:24.787Z,41.43
2018-01-10T02:56:52.274Z,40.30
2018-01-10T02:59:20.498Z,42.40
2018-01-10T03:01:47.950Z,42.10
2018-01-10T03:04:15.414Z,43.17
2018-01-10T03:06:43.625Z,40.77
2018-01-10T03:09:11.885Z,46.40
2018-01-10T03:11:39.353Z,41.43
2018-01-10T03:14:06.817Z,42.10
2018-01-10T03:16:35.035Z,49.40
2018-01-10T03:19:02.496Z,48.30
2018-01-10T03:21:29.963Z,56.97
2018-01-10T03:23:58.183Z,43.00
2018-01-10T03:26:26.407Z,40.07
2018-01-10T03:28:53.865Z,45.00
2018-01-10T03:31:21.319Z,44.70
2018-01-10T03:33:48.799Z,44.23
2018-01-10T03:36:16.258Z,44.83
2018-01-10T03:38:43.714Z,48.70
2018-01-10T03:41:11.175Z,44.27
2018-01-10T03:43:38.641Z,44.53
2018-01-10T03:46:06.106Z,45.53
2018-01-10T03:48:33.549Z,43.60
2018-01-10T03:51:01.029Z,44.90
2018-01-10T03:53:29.250Z,45.67
2018-01-10T03:55:56.713Z,43.40
2018-01-10T03:58:24.169Z,42.90
2018-01-10T04:00:51.625Z,43.13
2018-01-10T04:03:19.842Z,45.80
2018-01-10T04:05:47.309Z,46.50
2018-01-10T04:08:14.781Z,43.93
2018-01-10T04:10:43.008Z,42.97
2018-01-10T04:13:10.466Z,48.87
2018-01-10T04:15:37.929Z,43.63
2018-01-10T04:18:05.386Z,48.87
2018-01-10T04:20:32.854Z,40.80
2018-01-10T04:23:00.297Z,45.97
2018-01-10T04:25:27.753Z,45.23
2018-01-10T04:27:55.222Z,49.10
2018-01-10T04:30:22.674Z,42.67
2018-01-10T04:32:50.139Z,48.17
2018-01-10T04:35:17.613Z,47.73
2018-01-10T04:37:45.073Z,44.47
2018-01-10T04:40:13.293Z,41.20
2018-01-10T04:42:40.827Z,41.67
2018-01-10T04:45:08.216Z,47.93
2018-01-10T04:47:35.671Z,47.13
2018-01-10T04:50:03.133Z,35.80
2018-01-10T04:52:31.360Z,39.47
2018-01-10T04:54:59.577Z,35.27
2018-01-10T04:57:27.041Z,43.20
2018-01-10T04:59:54.497Z,37.90
2018-01-10T05:02:21.958Z,44.00
2018-01-10T05:04:49.419Z,56.80
2018-01-10T05:07:16.885Z,54.53
2018-01-10T05:09:44.337Z,57.33
2018-01-10T05:12:11.802Z,56.47
2018-01-10T05:14:39.364Z,49.80
2018-01-10T05:17:06.891Z,51.07
2018-01-10T05:19:34.345Z,46.53
2018-01-10T05:22:01.797Z,45.00
2018-01-10T05:24:29.261Z,39.93
2018-01-10T05:26:56.725Z,44.83
2018-01-10T05:29:24.185Z,47.90
2018-01-10T05:31:52.417Z,43.10
2018-01-10T05:34:20.660Z,43.23
2018-01-10T05:36:48.137Z,47.90
2018-01-10T05:39:15.605Z,43.53
2018-01-10T05:41:43.065Z,45.10
2018-01-10T05:44:11.298Z,47.67
2018-01-10T05:46:38.757Z,49.90
2018-01-10T05:49:06.217Z,42.73
2018-01-10T05:51:33.694Z,45.33
2018-01-10T05:54:01.150Z,43.70
2018-01-10T05:56:28.608Z,43.10
2018-01-10T05:58:56.130Z,42.83
2018-01-10T06:01:23.586Z,43.87
2018-01-10T06:03:51.042Z,38.80
2018-01-10T06:06:18.500Z,46.40
2018-01-10T06:08:45.962Z,41.27
2018-01-10T06:11:13.414Z,41.20
2018-01-10T06:13:40.882Z,44.53
2018-01-10T06:16:08.334Z,55.80
2018-01-10T06:18:35.826Z,55.00
2018-01-10T06:21:03.298Z,50.20
2018-01-10T06:23:31.521Z,47.00
2018-01-10T06:25:58.981Z,41.47
2018-01-10T06:28:26.441Z,43.87
2018-01-10T06:30:53.902Z,38.30
2018-01-10T06:33:21.353Z,39.30
2018-01-10T06:35:48.839Z,42.20
2018-01-10T06:38:16.289Z,44.87
2018-01-10T06:40:43.762Z,38.43
2018-01-10T06:43:12.717Z,38.43
2018-01-10T06:45:40.185Z,52.63
2018-01-10T06:48:07.633Z,42.43
2018-01-10T06:50:35.097Z,43.10
2018-01-10T06:53:02.545Z,43.03
2018-01-10T06:55:30.010Z,44.13
2018-01-10T06:57:57.461Z,65.70
2018-01-10T07:00:24.936Z,50.00
2018-01-10T07:02:52.386Z,58.00
2018-01-10T07:05:19.837Z,47.57
2018-01-10T07:07:47.317Z,51.33
2018-01-10T07:10:14.866Z,43.53
2018-01-10T07:12:42.309Z,44.10
2018-01-10T07:15:10.527Z,41.93
2018-01-10T07:17:37.985Z,40.20
2018-01-10T07:20:05.437Z,38.03
2018-01-10T07:22:32.902Z,38.00
2018-01-10T07:25:00.362Z,42.50
2018-01-10T07:27:28.585Z,44.17
2018-01-10T07:29:56.070Z,41.03
2018-01-10T07:32:23.542Z,39.63
2018-01-10T07:34:50.993Z,38.43
2018-01-10T07:37:18.450Z,38.20
2018-01-10T07:39:45.909Z,43.27
2018-01-10T07:42:13.377Z,39.23
2018-01-10T07:44:40.817Z,41.00
2018-01-10T07:47:08.273Z,40.80
2018-01-10T07:49:35.730Z,34.33
2018-01-10T07:52:03.193Z,43.90
2018-01-10T07:54:30.665Z,35.57
2018-01-10T07:56:58.138Z,38.60
2018-01-10T07:59:25.597Z,34.93
2018-01-10T08:01:53.041Z,32.33
2018-01-10T08:04:20.551Z,38.47
2018-01-10T08:06:48.016Z,34.30
2018-01-10T08:09:15.482Z,37.77
2018-01-10T08:11:42.945Z,31.33
2018-01-10T08:14:10.398Z,34.03
2018-01-10T08:16:37.869Z,28.83
2018-01-10T08:19:05.325Z,30.60
2018-01-10T08:21:32.790Z,32.80
2018-01-10T08:24:00.257Z,29.87
2018-01-10T08:26:27.714Z,28.43
2018-01-10T08:28:55.177Z,28.37
2018-01-10T08:31:22.641Z,29.43
2018-01-10T08:33:50.874Z,33.83
2018-01-10T08:36:18.330Z,32.07
2018-01-10T08:38:45.793Z,29.93
2018-01-10T08:41:13.249Z,26.90
2018-01-10T08:43:40.728Z,31.00
2018-01-10T08:46:08.182Z,30.37
2018-01-10T08:48:35.646Z,26.80
2018-01-10T08:51:03.887Z,24.43
2018-01-10T08:53:31.353Z,29.87
2018-01-10T08:55:58.810Z,35.70
2018-01-10T08:58:26.270Z,29.90
2018-01-10T09:00:53.725Z,26.63
2018-01-10T09:03:21.183Z,24.80
2018-01-10T09:05:48.633Z,31.10
2018-01-10T09:08:16.328Z,24.53
2018-01-10T09:10:43.787Z,24.03
2018-01-10T09:13:11.243Z,21.13
2018-01-10T09:15:38.705Z,30.63
2018-01-10T09:18:06.934Z,25.37
2018-01-10T09:20:34.402Z,26.40
2018-01-10T09:23:01.857Z,28.00
2018-01-10T09:25:29.328Z,24.33
2018-01-10T09:27:56.789Z,28.17
2018-01-10T09:30:24.249Z,29.47
2018-01-10T09:32:51.702Z,24.53
2018-01-10T09:35:19.159Z,27.13
2018-01-10T09:37:46.649Z,24.10
2018-01-10T09:40:14.088Z,27.80
2018-01-10T09:42:41.533Z,23.03
2018-01-10T09:45:09.010Z,28.03
2018-01-10T09:47:36.469Z,22.07
2018-01-10T09:50:04.710Z,27.17
2018-01-10T09:52:32.173Z,26.27
2018-01-10T09:54:59.629Z,22.67
2018-01-10T09:57:27.084Z,21.20
2018-01-10T09:59:54.563Z,25.40
2018-01-10T10:02:22.023Z,24.97
2018-01-10T10:04:49.483Z,21.33
2018-01-10T10:07:16.949Z,21.37
2018-01-10T10:09:44.416Z,20.50
2018-01-10T10:12:12.650Z,20.67
2018-01-10T10:14:40.461Z,23.50
2018-01-10T10:17:07.982Z,22.63
2018-01-10T10:19:35.402Z,19.97
2018-01-10T10:22:02.886Z,16.20
2018-01-10T10:24:30.342Z,21.80
2018-01-10T10:26:57.803Z,20.27
2018-01-10T10:29:25.257Z,20.80
2018-01-10T10:31:52.719Z,18.70
2018-01-10T10:34:20.946Z,22.83
2018-01-10T10:36:48.410Z,18.40
2018-01-10T10:39:15.878Z,16.97
2018-01-10T10:41:44.110Z,20.90
2018-01-10T10:44:11.566Z,19.47
2018-01-10T10:46:39.803Z,20.60
2018-01-10T10:49:07.257Z,20.20
2018-01-10T10:51:34.713Z,17.93
2018-01-10T10:54:02.178Z,18.10
2018-01-10T10:56:29.634Z,17.57
2018-01-10T10:58:57.095Z,17.87
2018-01-10T11:01:24.546Z,18.57
2018-01-10T11:03:52.010Z,17.57
2018-01-10T11:06:19.458Z,19.07
2018-01-10T11:08:46.915Z,17.60
2018-01-10T11:11:14.372Z,18.10
2018-01-10T11:13:41.837Z,16.97
2018-01-10T11:16:09.285Z,19.03
2018-01-10T11:18:36.746Z,17.07
2018-01-10T11:21:04.202Z,19.97
2018-01-10T11:23:31.657Z,16.20
2018-01-10T11:25:59.114Z,17.50
2018-01-10T11:28:27.485Z,18.90
2018-01-10T11:30:54.942Z,17.37
2018-01-10T11:33:22.418Z,21.10
2018-01-10T11:35:49.900Z,17.60
2018-01-10T11:38:17.325Z,17.30
2018-01-10T11:40:44.778Z,15.73
2018-01-10T11:43:12.221Z,15.20
2018-01-10T11:45:39.738Z,24.13
2018-01-10T11:48:07.173Z,15.60
2018-01-10T11:50:34.593Z,17.37
2018-01-10T11:53:02.050Z,17.30
2018-01-10T11:55:29.510Z,14.73
2018-01-10T11:57:56.969Z,20.00
2018-01-10T12:00:24.441Z,18.70
2018-01-10T12:02:51.899Z,15.80
2018-01-10T12:05:19.361Z,16.47
2018-01-10T12:07:46.822Z,15.50
2018-01-10T12:10:14.278Z,17.43
2018-01-10T12:12:41.724Z,17.90
2018-01-10T12:15:09.194Z,14.57
2018-01-10T12:17:36.667Z,17.00
2018-01-10T12:20:04.894Z,18.33
2018-01-10T12:22:32.352Z,20.27
2018-01-10T12:25:00.590Z,16.17
2018-01-10T12:27:28.044Z,14.57
2018-01-10T12:29:55.501Z,17.13
2018-01-10T12:32:22.954Z,17.10
2018-01-10T12:34:51.176Z,13.97
2018-01-10T12:37:18.634Z,13.70
2018-01-10T12:39:46.106Z,14.63
2018-01-10T12:42:13.570Z,14.20
2018-01-10T12:44:41.013Z,13.90
2018-01-10T12:47:08.487Z,16.37
2018-01-10T12:49:35.930Z,18.50
2018-01-10T12:52:03.388Z,16.83
2018-01-10T12:54:30.856Z,14.17
2018-01-10T12:56:58.344Z,15.27
2018-01-10T12:59:25.813Z,14.40
2018-01-10T13:01:54.062Z,17.23
2018-01-10T13:04:21.509Z,15.23
2018-01-10T13:06:48.970Z,16.43
2018-01-10T13:09:16.426Z,13.93
2018-01-10T13:11:43.881Z,14.10
2018-01-10T13:14:11.333Z,14.73
2018-01-10T13:16:38.801Z,13.80
2018-01-10T13:19:06.268Z,13.17
2018-01-10T13:21:33.730Z,13.77
2018-01-10T13:24:01.194Z,14.97
2018-01-10T13:26:28.657Z,13.80
2018-01-10T13:28:56.117Z,13.80
2018-01-10T13:31:23.610Z,13.13
2018-01-10T13:33:51.071Z,15.20
2018-01-10T13:36:18.516Z,15.03
2018-01-10T13:38:45.974Z,13.70
2018-01-10T13:41:13.439Z,14.30
2018-01-10T13:43:40.909Z,14.80
2018-01-10T13:46:08.360Z,12.30
2018-01-10T13:48:35.844Z,11.97
2018-01-10T13:51:03.305Z,12.67
2018-01-10T13:53:30.796Z,14.80
2018-01-10T13:55:58.295Z,16.20
2018-01-10T13:58:25.764Z,12.87
2018-01-10T14:00:53.219Z,13.27
2018-01-10T14:03:20.685Z,14.00
2018-01-10T14:05:48.146Z,12.53
2018-01-10T14:08:15.642Z,13.73
2018-01-10T14:10:43.861Z,11.07
2018-01-10T14:13:11.318Z,12.43
2018-01-10T14:15:38.782Z,18.77
2018-01-10T14:18:06.250Z,13.27
2018-01-10T14:20:33.710Z,9.73
2018-01-10T14:23:01.165Z,13.70
2018-01-10T14:25:28.630Z,13.20
2018-01-10T14:27:56.085Z,11.00
2018-01-10T14:30:23.537Z,11.30
2018-01-10T14:32:50.992Z,13.83
2018-01-10T14:35:18.454Z,11.53
2018-01-10T14:37:45.964Z,11.90
2018-01-10T14:40:14.177Z,11.70
2018-01-10T14:42:41.635Z,18.40
2018-01-10T14:45:09.131Z,11.67
2018-01-10T14:47:36.595Z,11.73
2018-01-10T14:50:04.043Z,11.93
2018-01-10T14:52:31.505Z,16.13
2018-01-10T14:54:58.970Z,10.80
2018-01-10T14:57:27.194Z,11.00
2018-01-10T14:59:54.652Z,10.13
2018-01-10T15:02:22.105Z,10.90
2018-01-10T15:04:49.557Z,12.50
2018-01-10T15:07:17.012Z,14.87
2018-01-10T15:09:44.473Z,10.77
2018-01-10T15:12:11.936Z,9.47
2018-01-10T15:14:39.383Z,10.20
2018-01-10T15:17:06.838Z,10.73
2018-01-10T15:19:34.317Z,10.80
2018-01-10T15:22:01.766Z,8.57
2018-01-10T15:24:29.221Z,11.70
2018-01-10T15:26:56.682Z,12.80
2018-01-10T15:29:24.153Z,9.73
2018-01-10T15:31:51.605Z,9.47
2018-01-10T15:34:19.052Z,10.80
2018-01-10T15:36:46.518Z,14.30
2018-01-10T15:39:14.739Z,21.07
2018-01-10T15:41:42.970Z,17.47
2018-01-10T15:44:10.421Z,18.80
2018-01-10T15:46:38.661Z,21.47
2018-01-10T15:49:06.904Z,19.27
2018-01-10T15:51:34.364Z,22.40
2018-01-10T15:54:01.809Z,21.50
2018-01-10T15:56:29.282Z,21.40
2018-01-10T15:58:56.725Z,22.70
2018-01-10T16:01:24.193Z,27.90
2018-01-10T16:03:51.646Z,27.77
2018-01-10T16:06:19.113Z,26.20
2018-01-10T16:08:46.560Z,26.30
2018-01-10T16:11:14.034Z,33.10
2018-01-10T16:13:42.258Z,31.60
2018-01-10T16:16:09.714Z,28.93
2018-01-10T16:18:37.169Z,37.67
2018-01-10T16:21:04.625Z,29.60
2018-01-10T16:23:32.099Z,30.93
2018-01-10T16:25:59.554Z,30.10
2018-01-10T16:28:27.013Z,28.93
2018-01-10T16:30:54.475Z,27.00
2018-01-10T16:33:21.939Z,33.03
2018-01-10T16:35:49.389Z,31.20
2018-01-10T16:38:16.850Z,30.80
2018-01-10T16:40:44.315Z,29.60
2018-01-10T16:43:11.789Z,34.47
2018-01-10T16:45:40.746Z,30.83
2018-01-10T16:48:08.205Z,32.40
2018-01-10T16:50:36.433Z,28.83
2018-01-10T16:53:04.669Z,31.13
2018-01-10T16:55:32.121Z,31.63
2018-01-10T16:57:59.582Z,27.17
2018-01-10T17:00:27.033Z,33.20
2018-01-10T17:02:54.509Z,34.33
2018-01-10T17:05:23.481Z,30.67
2018-01-10T17:07:50.945Z,32.07
2018-01-10T17:10:18.406Z,32.63
2018-01-10T17:12:45.918Z,31.33
2018-01-10T17:15:14.133Z,31.67
2018-01-10T17:17:41.590Z,64.63
2018-01-10T17:20:09.041Z,40.57
2018-01-10T17:22:36.505Z,46.20
2018-01-10T17:25:03.986Z,52.60
2018-01-10T17:27:31.438Z,53.77
2018-01-10T17:29:58.914Z,60.63
2018-01-10T17:32:26.353Z,65.70
2018-01-10T17:34:53.819Z,129.40
2018-01-10T17:37:21.277Z,127.73
2018-01-10T17:39:49.506Z,95.60
2018-01-10T17:42:16.962Z,95.83
2018-01-10T17:44:44.430Z,99.40
2018-01-10T17:47:11.899Z,95.03
2018-01-10T17:49:39.369Z,85.97
2018-01-10T17:52:06.844Z,70.87
2018-01-10T17:54:34.314Z,70.13
2018-01-10T17:57:02.534Z,61.90
2018-01-10T17:59:29.997Z,62.03
2018-01-10T18:01:57.446Z,58.23
2018-01-10T18:04:24.902Z,61.63
2018-01-10T18:06:52.376Z,51.83
2018-01-10T18:09:19.838Z,50.97
2018-01-10T18:11:47.305Z,45.03
2018-01-10T18:14:15.550Z,44.77
2018-01-10T18:16:43.008Z,56.60
2018-01-10T18:19:10.468Z,59.17
2018-01-10T18:21:37.937Z,54.50
2018-01-10T18:24:05.393Z,56.20
2018-01-10T18:26:32.879Z,52.83
2018-01-10T18:29:00.347Z,45.83
2018-01-10T18:31:27.816Z,50.17
2018-01-10T18:33:56.058Z,45.87
2018-01-10T18:36:23.518Z,38.47
2018-01-10T18:38:52.492Z,43.43
2018-01-10T18:41:19.957Z,39.67
2018-01-10T18:43:47.418Z,36.27
2018-01-10T18:46:14.894Z,38.83
2018-01-10T18:48:42.442Z,33.13
2018-01-10T18:51:09.917Z,32.03
2018-01-10T18:53:38.149Z,34.67
2018-01-10T18:56:06.390Z,33.77
2018-01-10T18:58:34.605Z,31.43
2018-01-10T19:01:02.071Z,40.80
2018-01-10T19:03:29.541Z,31.53
2018-01-10T19:05:56.986Z,33.50
2018-01-10T19:08:24.475Z,33.00
2018-01-10T19:10:51.935Z,30.40
2018-01-10T19:13:19.398Z,30.93
2018-01-10T19:15:47.646Z,32.33
2018-01-10T19:18:15.117Z,53.10
2018-01-10T19:20:42.577Z,43.97
2018-01-10T19:23:10.038Z,36.90
2018-01-10T19:25:38.266Z,35.90
2018-01-10T19:28:05.722Z,37.80
2018-01-10T19:30:33.181Z,33.63
2018-01-10T19:33:00.660Z,35.87
2018-01-10T19:35:28.129Z,32.33
2018-01-10T19:37:55.582Z,33.40
2018-01-10T19:40:23.047Z,38.93
2018-01-10T19:42:51.282Z,30.67
2018-01-10T19:45:18.743Z,35.60
2018-01-10T19:47:46.239Z,41.03
2018-01-10T19:50:13.706Z,36.87
2018-01-10T19:52:41.165Z,40.47
2018-01-10T19:55:09.393Z,58.40
2018-01-10T19:57:36.876Z,48.63
2018-01-10T20:00:04.326Z,65.70
2018-01-10T20:02:32.542Z,66.03
2018-01-10T20:05:00.765Z,71.50
2018-01-10T20:07:28.237Z,72.13
2018-01-10T20:09:55.713Z,71.93
2018-01-10T20:12:23.163Z,68.23
2018-01-10T20:14:50.634Z,64.30
2018-01-10T20:17:18.101Z,62.90
2018-01-10T20:19:45.576Z,63.57
2018-01-10T20:22:13.038Z,56.57
2018-01-10T20:24:40.516Z,66.50
2018-01-10T20:27:07.981Z,53.93
2018-01-10T20:29:35.455Z,51.10
2018-01-10T20:32:02.910Z,47.43
2018-01-10T20:34:31.141Z,45.57
2018-01-10T20:36:58.612Z,47.77
2018-01-10T20:39:26.075Z,43.33
2018-01-10T20:41:53.541Z,40.07
2018-01-10T20:44:21.013Z,44.67
2018-01-10T20:46:48.464Z,42.60
2018-01-10T20:49:15.924Z,40.53
2018-01-10T20:51:43.382Z,39.57
2018-01-10T20:54:10.846Z,40.17
2018-01-10T20:56:38.300Z,37.07
2018-01-10T20:59:05.762Z,37.73
2018-01-10T21:01:33.222Z,35.63
2018-01-10T21:04:00.670Z,36.97
2018-01-10T21:06:28.904Z,34.00
2018-01-10T21:08:57.137Z,38.40
2018-01-10T21:11:24.610Z,33.73
2018-01-10T21:13:52.838Z,34.00
2018-01-10T21:16:20.324Z,37.80
2018-01-10T21:18:47.777Z,39.53
2018-01-10T21:21:15.254Z,43.50
2018-01-10T21:23:43.477Z,41.73
2018-01-10T21:26:10.950Z,39.77
2018-01-10T21:28:38.407Z,36.87
2018-01-10T21:31:05.913Z,36.63
2018-01-10T21:33:34.145Z,33.10
2018-01-10T21:36:01.605Z,36.87
2018-01-10T21:38:29.078Z,32.23
2018-01-10T21:40:56.554Z,36.00
2018-01-10T21:43:24.047Z,31.43
2018-01-10T21:45:51.501Z,33.30
2018-01-10T21:48:18.974Z,29.30
2018-01-10T21:50:46.429Z,30.83
2018-01-10T21:53:13.898Z,30.70
2018-01-10T21:55:41.373Z,31.47
2018-01-10T21:58:08.833Z,30.43
2018-01-10T22:00:36.285Z,29.53
2018-01-10T22:03:03.742Z,29.43
2018-01-10T22:05:31.198Z,36.97
2018-01-10T22:07:58.661Z,29.97
2018-01-10T22:10:26.110Z,29.70
2018-01-10T22:12:53.591Z,29.13
2018-01-10T22:15:21.050Z,29.70
2018-01-10T22:17:48.574Z,32.97
2018-01-10T22:20:16.021Z,27.53
2018-01-10T22:22:44.254Z,30.00
2018-01-10T22:25:11.711Z,30.10
2018-01-10T22:27:39.178Z,26.70
2018-01-10T22:30:06.644Z,27.27
2018-01-10T22:32:34.097Z,27.13
2018-01-10T22:35:01.562Z,28.60
2018-01-10T22:37:29.017Z,30.73
2018-01-10T22:39:57.254Z,28.73
2018-01-10T22:42:24.716Z,27.17
2018-01-10T22:44:52.180Z,24.80
2018-01-10T22:47:19.654Z,31.17
2018-01-10T22:49:47.879Z,26.60
2018-01-10T22:52:15.334Z,31.77
2018-01-10T22:54:42.797Z,29.17
2018-01-10T22:57:10.250Z,25.20
2018-01-10T22:59:37.881Z,27.17
2018-01-10T23:02:05.341Z,26.30
2018-01-10T23:04:32.809Z,27.67
2018-01-10T23:07:00.272Z,26.43
2018-01-10T23:09:27.737Z,25.63
2018-01-10T23:11:55.205Z,27.53
2018-01-10T23:14:22.680Z,27.83
2018-01-10T23:16:50.125Z,27.83
2018-01-10T23:19:17.602Z,27.20
2018-01-10T23:21:45.065Z,26.23
2018-01-10T23:24:12.541Z,24.70
2018-01-10T23:26:40.002Z,21.73
2018-01-10T23:29:07.479Z,23.47
2018-01-10T23:31:34.942Z,23.60
2018-01-10T23:34:02.398Z,26.70
2018-01-10T23:36:29.887Z,28.73
2018-01-10T23:38:57.343Z,24.30
2018-01-10T23:41:25.565Z,30.43
2018-01-10T23:43:53.036Z,29.63
2018-01-10T23:46:20.494Z,26.17
2018-01-10T23:48:47.966Z,25.33
2018-01-10T23:51:15.428Z,27.40
2018-01-10T23:53:42.884Z,25.47
2018-01-10T23:56:10.332Z,27.80
2018-01-10T23:58:37.785Z,29.23
